sensor_id;sensor_type;location;lat;lon;timestamp;P1;durP1;ratioP1;P2;durP2;ratioP2
71914;SDS011;60387;49.994;14.660;2022-11-24T00:01:15;60.83;;;19.63;;
71914;SDS011;60387;49.994;14.660;2022-11-24T00:06:31;67.22;;;22.83;;
71914;SDS011;60387;49.994;14.660;2022-11-24T00:09:05;64.15;;;22.23;;
71914;SDS011;60387;49.994;14.660;2022-11-24T00:11:39;58.60;;;19.93;;
71914;SDS011;60387;49.994;14.660;2022-11-24T00:14:12;55.53;;;19.13;;
71914;SDS011;60387;49.994;14.660;2022-11-24T00:16:45;53.80;;;20.53;;
71914;SDS011;60387;49.994;14.660;2022-11-24T00:19:18;45.93;;;17.07;;
71914;SDS011;60387;49.994;14.660;2022-11-24T00:21:52;47.90;;;16.57;;
71914;SDS011;60387;49.994;14.660;2022-11-24T00:24:25;46.30;;;14.90;;
71914;SDS011;60387;49.994;14.660;2022-11-24T00:26:58;46.37;;;16.60;;
71914;SDS011;60387;49.994;14.660;2022-11-24T00:29:31;38.33;;;14.23;;
71914;SDS011;60387;49.994;14.660;2022-11-24T00:32:05;44.07;;;15.83;;
71914;SDS011;60387;49.994;14.660;2022-11-24T00:34:38;39.93;;;13.40;;
71914;SDS011;60387;49.994;14.660;2022-11-24T00:37:11;35.67;;;14.07;;
71914;SDS011;60387;49.994;14.660;2022-11-24T00:39:44;39.87;;;12.77;;
71914;SDS011;60387;49.994;14.660;2022-11-24T00:42:18;40.57;;;14.57;;
71914;SDS011;60387;49.994;14.660;2022-11-24T00:44:51;38.23;;;13.33;;
71914;SDS011;60387;49.994;14.660;2022-11-24T00:47:24;43.43;;;13.63;;
71914;SDS011;60387;49.994;14.660;2022-11-24T00:49:57;45.10;;;14.40;;
71914;SDS011;60387;49.994;14.660;2022-11-24T00:52:30;36.27;;;12.60;;
71914;SDS011;60387;49.994;14.660;2022-11-24T00:55:04;33.80;;;12.57;;
71914;SDS011;60387;49.994;14.660;2022-11-24T00:57:37;32.93;;;11.63;;
71914;SDS011;60387;49.994;14.660;2022-11-24T01:00:10;40.53;;;13.50;;
71914;SDS011;60387;49.994;14.660;2022-11-24T01:02:44;36.10;;;12.10;;
71914;SDS011;60387;49.994;14.660;2022-11-24T01:05:17;34.83;;;12.20;;
71914;SDS011;60387;49.994;14.660;2022-11-24T01:07:51;32.58;;;11.43;;
71914;SDS011;60387;49.994;14.660;2022-11-24T01:10:24;32.30;;;12.10;;
71914;SDS011;60387;49.994;14.660;2022-11-24T01:12:57;39.10;;;12.57;;
71914;SDS011;60387;49.994;14.660;2022-11-24T01:15:33;36.47;;;11.67;;
71914;SDS011;60387;49.994;14.660;2022-11-24T01:18:08;35.13;;;10.95;;
71914;SDS011;60387;49.994;14.660;2022-11-24T01:20:43;39.65;;;12.50;;
71914;SDS011;60387;49.994;14.660;2022-11-24T01:23:17;31.37;;;12.33;;
71914;SDS011;60387;49.994;14.660;2022-11-24T01:25:50;38.40;;;13.60;;
71914;SDS011;60387;49.994;14.660;2022-11-24T01:28:23;38.57;;;13.37;;
71914;SDS011;60387;49.994;14.660;2022-11-24T01:31:00;35.60;;;12.17;;
71914;SDS011;60387;49.994;14.660;2022-11-24T01:33:35;36.70;;;13.45;;
71914;SDS011;60387;49.994;14.660;2022-11-24T01:36:08;40.60;;;12.90;;
71914;SDS011;60387;49.994;14.660;2022-11-24T01:38:42;35.42;;;13.02;;
71914;SDS011;60387;49.994;14.660;2022-11-24T01:41:19;33.10;;;12.30;;
71914;SDS011;60387;49.994;14.660;2022-11-24T01:43:54;36.88;;;12.15;;
71914;SDS011;60387;49.994;14.660;2022-11-24T01:51:42;30.10;;;11.30;;
71914;SDS011;60387;49.994;14.660;2022-11-24T01:54:22;34.72;;;10.68;;
71914;SDS011;60387;49.994;14.660;2022-11-24T01:57:09;32.17;;;12.37;;
71914;SDS011;60387;49.994;14.660;2022-11-24T01:59:50;32.38;;;11.95;;
71914;SDS011;60387;49.994;14.660;2022-11-24T02:02:28;32.13;;;11.20;;
71914;SDS011;60387;49.994;14.660;2022-11-24T02:05:02;32.08;;;11.02;;
71914;SDS011;60387;49.994;14.660;2022-11-24T02:07:40;34.75;;;11.82;;
71914;SDS011;60387;49.994;14.660;2022-11-24T02:10:14;32.17;;;11.30;;
71914;SDS011;60387;49.994;14.660;2022-11-24T02:12:49;31.95;;;11.30;;
71914;SDS011;60387;49.994;14.660;2022-11-24T02:15:25;29.13;;;10.40;;
71914;SDS011;60387;49.994;14.660;2022-11-24T02:17:59;30.55;;;11.02;;
71914;SDS011;60387;49.994;14.660;2022-11-24T02:20:32;35.17;;;11.40;;
71914;SDS011;60387;49.994;14.660;2022-11-24T02:23:22;34.23;;;11.67;;
71914;SDS011;60387;49.994;14.660;2022-11-24T02:26:07;34.03;;;12.27;;
71914;SDS011;60387;49.994;14.660;2022-11-24T02:28:51;32.40;;;11.40;;
71914;SDS011;60387;49.994;14.660;2022-11-24T02:31:24;30.10;;;10.43;;
71914;SDS011;60387;49.994;14.660;2022-11-24T02:33:58;33.40;;;11.65;;
71914;SDS011;60387;49.994;14.660;2022-11-24T02:36:31;33.27;;;11.07;;
71914;SDS011;60387;49.994;14.660;2022-11-24T02:39:08;31.13;;;10.40;;
71914;SDS011;60387;49.994;14.660;2022-11-24T02:41:48;29.70;;;9.82;;
71914;SDS011;60387;49.994;14.660;2022-11-24T02:44:25;33.80;;;10.80;;
71914;SDS011;60387;49.994;14.660;2022-11-24T02:47:03;33.30;;;12.60;;
71914;SDS011;60387;49.994;14.660;2022-11-24T02:49:37;29.20;;;10.20;;
71914;SDS011;60387;49.994;14.660;2022-11-24T02:52:11;31.43;;;11.07;;
71914;SDS011;60387;49.994;14.660;2022-11-24T02:54:44;30.90;;;10.83;;
71914;SDS011;60387;49.994;14.660;2022-11-24T02:57:17;27.17;;;9.30;;
71914;SDS011;60387;49.994;14.660;2022-11-24T02:59:51;28.85;;;11.00;;
71914;SDS011;60387;49.994;14.660;2022-11-24T03:02:24;30.65;;;10.48;;
71914;SDS011;60387;49.994;14.660;2022-11-24T03:04:57;31.90;;;10.98;;
71914;SDS011;60387;49.994;14.660;2022-11-24T03:07:30;29.27;;;10.98;;
71914;SDS011;60387;49.994;14.660;2022-11-24T03:10:04;29.35;;;9.73;;
71914;SDS011;60387;49.994;14.660;2022-11-24T03:12:37;40.00;;;10.73;;
71914;SDS011;60387;49.994;14.660;2022-11-24T03:15:10;36.47;;;11.87;;
71914;SDS011;60387;49.994;14.660;2022-11-24T03:17:44;36.63;;;11.73;;
71914;SDS011;60387;49.994;14.660;2022-11-24T03:20:17;26.47;;;8.17;;
71914;SDS011;60387;49.994;14.660;2022-11-24T03:22:50;31.20;;;9.30;;
71914;SDS011;60387;49.994;14.660;2022-11-24T03:25:24;31.23;;;9.13;;
71914;SDS011;60387;49.994;14.660;2022-11-24T03:27:57;33.03;;;9.57;;
71914;SDS011;60387;49.994;14.660;2022-11-24T03:30:30;33.50;;;9.77;;
71914;SDS011;60387;49.994;14.660;2022-11-24T03:33:04;30.47;;;9.23;;
71914;SDS011;60387;49.994;14.660;2022-11-24T03:35:37;33.93;;;9.50;;
71914;SDS011;60387;49.994;14.660;2022-11-24T03:38:10;31.40;;;10.10;;
71914;SDS011;60387;49.994;14.660;2022-11-24T03:40:43;36.47;;;11.37;;
71914;SDS011;60387;49.994;14.660;2022-11-24T03:43:17;31.87;;;9.10;;
71914;SDS011;60387;49.994;14.660;2022-11-24T03:45:50;39.03;;;10.07;;
71914;SDS011;60387;49.994;14.660;2022-11-24T03:48:23;36.90;;;9.60;;
71914;SDS011;60387;49.994;14.660;2022-11-24T03:50:57;31.60;;;9.10;;
71914;SDS011;60387;49.994;14.660;2022-11-24T03:53:32;28.52;;;8.50;;
71914;SDS011;60387;49.994;14.660;2022-11-24T03:56:06;27.03;;;8.00;;
71914;SDS011;60387;49.994;14.660;2022-11-24T03:58:39;20.38;;;6.47;;
71914;SDS011;60387;49.994;14.660;2022-11-24T04:01:12;27.40;;;7.43;;
71914;SDS011;60387;49.994;14.660;2022-11-24T04:03:46;28.17;;;8.10;;
71914;SDS011;60387;49.994;14.660;2022-11-24T04:06:19;29.73;;;7.93;;
71914;SDS011;60387;49.994;14.660;2022-11-24T04:08:52;22.70;;;7.10;;
71914;SDS011;60387;49.994;14.660;2022-11-24T04:11:25;23.30;;;6.73;;
71914;SDS011;60387;49.994;14.660;2022-11-24T04:13:59;25.00;;;7.83;;
71914;SDS011;60387;49.994;14.660;2022-11-24T04:16:32;24.37;;;8.47;;
71914;SDS011;60387;49.994;14.660;2022-11-24T04:19:05;24.20;;;7.20;;
71914;SDS011;60387;49.994;14.660;2022-11-24T04:21:38;27.00;;;8.30;;
71914;SDS011;60387;49.994;14.660;2022-11-24T04:24:12;22.07;;;6.93;;
71914;SDS011;60387;49.994;14.660;2022-11-24T04:26:45;22.53;;;7.27;;
71914;SDS011;60387;49.994;14.660;2022-11-24T04:29:18;25.77;;;7.50;;
71914;SDS011;60387;49.994;14.660;2022-11-24T04:31:52;21.88;;;7.90;;
71914;SDS011;60387;49.994;14.660;2022-11-24T04:34:25;22.63;;;7.47;;
71914;SDS011;60387;49.994;14.660;2022-11-24T04:36:58;22.35;;;7.00;;
71914;SDS011;60387;49.994;14.660;2022-11-24T04:39:31;23.85;;;7.63;;
71914;SDS011;60387;49.994;14.660;2022-11-24T04:42:05;21.15;;;6.57;;
71914;SDS011;60387;49.994;14.660;2022-11-24T04:44:38;25.27;;;8.13;;
71914;SDS011;60387;49.994;14.660;2022-11-24T04:47:15;24.53;;;7.23;;
71914;SDS011;60387;49.994;14.660;2022-11-24T04:49:51;22.10;;;7.60;;
71914;SDS011;60387;49.994;14.660;2022-11-24T04:52:25;22.50;;;6.90;;
71914;SDS011;60387;49.994;14.660;2022-11-24T04:54:59;25.20;;;7.35;;
71914;SDS011;60387;49.994;14.660;2022-11-24T04:57:32;23.27;;;6.97;;
71914;SDS011;60387;49.994;14.660;2022-11-24T05:00:06;19.77;;;6.50;;
71914;SDS011;60387;49.994;14.660;2022-11-24T05:02:40;26.55;;;8.13;;
71914;SDS011;60387;49.994;14.660;2022-11-24T05:05:14;22.77;;;8.07;;
71914;SDS011;60387;49.994;14.660;2022-11-24T05:07:47;23.43;;;7.00;;
71914;SDS011;60387;49.994;14.660;2022-11-24T05:10:20;22.53;;;7.27;;
71914;SDS011;60387;49.994;14.660;2022-11-24T05:12:54;24.00;;;7.93;;
71914;SDS011;60387;49.994;14.660;2022-11-24T05:15:28;20.93;;;6.87;;
71914;SDS011;60387;49.994;14.660;2022-11-24T05:18:05;22.65;;;6.60;;
71914;SDS011;60387;49.994;14.660;2022-11-24T05:20:40;22.45;;;6.63;;
71914;SDS011;60387;49.994;14.660;2022-11-24T05:23:14;23.88;;;6.93;;
71914;SDS011;60387;49.994;14.660;2022-11-24T05:25:48;20.43;;;6.53;;
71914;SDS011;60387;49.994;14.660;2022-11-24T05:28:21;20.75;;;6.22;;
71914;SDS011;60387;49.994;14.660;2022-11-24T05:30:58;18.03;;;6.43;;
71914;SDS011;60387;49.994;14.660;2022-11-24T05:33:32;20.25;;;6.45;;
71914;SDS011;60387;49.994;14.660;2022-11-24T05:36:05;22.50;;;6.43;;
71914;SDS011;60387;49.994;14.660;2022-11-24T05:38:39;22.50;;;7.80;;
71914;SDS011;60387;49.994;14.660;2022-11-24T05:41:12;23.77;;;6.93;;
71914;SDS011;60387;49.994;14.660;2022-11-24T05:43:45;22.00;;;6.60;;
71914;SDS011;60387;49.994;14.660;2022-11-24T05:46:19;41.93;;;13.53;;
71914;SDS011;60387;49.994;14.660;2022-11-24T05:48:52;29.43;;;8.57;;
71914;SDS011;60387;49.994;14.660;2022-11-24T05:51:25;21.83;;;7.70;;
71914;SDS011;60387;49.994;14.660;2022-11-24T05:53:59;22.35;;;7.40;;
71914;SDS011;60387;49.994;14.660;2022-11-24T05:56:32;26.17;;;8.60;;
71914;SDS011;60387;49.994;14.660;2022-11-24T05:59:05;24.23;;;7.30;;
71914;SDS011;60387;49.994;14.660;2022-11-24T06:01:39;21.57;;;6.93;;
71914;SDS011;60387;49.994;14.660;2022-11-24T06:04:12;22.50;;;7.23;;
71914;SDS011;60387;49.994;14.660;2022-11-24T06:06:45;25.17;;;7.73;;
71914;SDS011;60387;49.994;14.660;2022-11-24T06:09:19;38.67;;;10.73;;
71914;SDS011;60387;49.994;14.660;2022-11-24T06:11:52;28.97;;;10.17;;
71914;SDS011;60387;49.994;14.660;2022-11-24T06:14:26;25.47;;;7.40;;
71914;SDS011;60387;49.994;14.660;2022-11-24T06:16:59;20.38;;;6.30;;
71914;SDS011;60387;49.994;14.660;2022-11-24T06:19:33;24.08;;;6.50;;
71914;SDS011;60387;49.994;14.660;2022-11-24T06:22:06;18.23;;;6.57;;
71914;SDS011;60387;49.994;14.660;2022-11-24T06:24:40;21.20;;;8.30;;
71914;SDS011;60387;49.994;14.660;2022-11-24T06:27:13;25.48;;;9.65;;
71914;SDS011;60387;49.994;14.660;2022-11-24T06:29:47;20.43;;;7.63;;
71914;SDS011;60387;49.994;14.660;2022-11-24T06:32:20;20.23;;;7.57;;
71914;SDS011;60387;49.994;14.660;2022-11-24T06:34:53;19.23;;;7.67;;
71914;SDS011;60387;49.994;14.660;2022-11-24T06:37:27;18.73;;;7.20;;
71914;SDS011;60387;49.994;14.660;2022-11-24T06:40:00;21.57;;;7.43;;
71914;SDS011;60387;49.994;14.660;2022-11-24T06:42:34;22.70;;;8.63;;
71914;SDS011;60387;49.994;14.660;2022-11-24T06:45:08;20.45;;;7.15;;
71914;SDS011;60387;49.994;14.660;2022-11-24T06:47:41;18.80;;;7.15;;
71914;SDS011;60387;49.994;14.660;2022-11-24T06:50:14;19.67;;;7.73;;
71914;SDS011;60387;49.994;14.660;2022-11-24T06:52:48;21.50;;;7.53;;
71914;SDS011;60387;49.994;14.660;2022-11-24T06:55:21;17.03;;;6.73;;
71914;SDS011;60387;49.994;14.660;2022-11-24T06:57:54;19.13;;;6.27;;
71914;SDS011;60387;49.994;14.660;2022-11-24T07:00:27;15.67;;;6.10;;
71914;SDS011;60387;49.994;14.660;2022-11-24T07:03:01;27.20;;;8.40;;
71914;SDS011;60387;49.994;14.660;2022-11-24T07:05:34;22.97;;;7.80;;
71914;SDS011;60387;49.994;14.660;2022-11-24T07:08:07;19.57;;;7.43;;
71914;SDS011;60387;49.994;14.660;2022-11-24T07:10:41;19.97;;;7.13;;
71914;SDS011;60387;49.994;14.660;2022-11-24T07:13:14;19.33;;;6.33;;
71914;SDS011;60387;49.994;14.660;2022-11-24T07:15:47;15.90;;;5.50;;
71914;SDS011;60387;49.994;14.660;2022-11-24T07:18:20;17.93;;;6.67;;
71914;SDS011;60387;49.994;14.660;2022-11-24T07:20:54;15.27;;;5.60;;
71914;SDS011;60387;49.994;14.660;2022-11-24T07:23:27;14.00;;;5.17;;
71914;SDS011;60387;49.994;14.660;2022-11-24T07:26:01;19.97;;;6.37;;
71914;SDS011;60387;49.994;14.660;2022-11-24T07:28:35;16.42;;;6.47;;
71914;SDS011;60387;49.994;14.660;2022-11-24T07:31:12;17.83;;;5.80;;
71914;SDS011;60387;49.994;14.660;2022-11-24T07:33:48;18.50;;;5.85;;
71914;SDS011;60387;49.994;14.660;2022-11-24T07:36:22;17.30;;;6.38;;
71914;SDS011;60387;49.994;14.660;2022-11-24T07:38:56;17.87;;;6.93;;
71914;SDS011;60387;49.994;14.660;2022-11-24T07:41:29;17.63;;;6.67;;
71914;SDS011;60387;49.994;14.660;2022-11-24T07:44:02;14.13;;;5.50;;
71914;SDS011;60387;49.994;14.660;2022-11-24T07:46:36;16.10;;;6.90;;
71914;SDS011;60387;49.994;14.660;2022-11-24T07:49:09;16.97;;;5.97;;
71914;SDS011;60387;49.994;14.660;2022-11-24T07:51:42;17.30;;;5.97;;
71914;SDS011;60387;49.994;14.660;2022-11-24T07:54:16;14.93;;;4.53;;
71914;SDS011;60387;49.994;14.660;2022-11-24T07:56:49;16.20;;;5.13;;
71914;SDS011;60387;49.994;14.660;2022-11-24T07:59:22;13.57;;;4.90;;
71914;SDS011;60387;49.994;14.660;2022-11-24T08:01:56;12.67;;;4.40;;
71914;SDS011;60387;49.994;14.660;2022-11-24T08:04:29;13.80;;;4.60;;
71914;SDS011;60387;49.994;14.660;2022-11-24T08:07:02;15.20;;;4.70;;
71914;SDS011;60387;49.994;14.660;2022-11-24T08:09:35;12.37;;;4.43;;
71914;SDS011;60387;49.994;14.660;2022-11-24T08:12:09;13.80;;;5.30;;
71914;SDS011;60387;49.994;14.660;2022-11-24T08:14:42;18.93;;;5.87;;
71914;SDS011;60387;49.994;14.660;2022-11-24T08:17:16;21.47;;;7.37;;
71914;SDS011;60387;49.994;14.660;2022-11-24T08:19:49;25.23;;;7.53;;
71914;SDS011;60387;49.994;14.660;2022-11-24T08:22:23;30.70;;;8.73;;
71914;SDS011;60387;49.994;14.660;2022-11-24T08:24:56;26.80;;;8.90;;
71914;SDS011;60387;49.994;14.660;2022-11-24T08:27:29;23.27;;;7.20;;
71914;SDS011;60387;49.994;14.660;2022-11-24T08:30:02;16.63;;;5.27;;
71914;SDS011;60387;49.994;14.660;2022-11-24T08:32:36;23.02;;;6.68;;
71914;SDS011;60387;49.994;14.660;2022-11-24T08:35:09;14.20;;;4.50;;
71914;SDS011;60387;49.994;14.660;2022-11-24T08:37:43;15.80;;;5.50;;
71914;SDS011;60387;49.994;14.660;2022-11-24T08:40:16;29.60;;;11.73;;
71914;SDS011;60387;49.994;14.660;2022-11-24T08:42:49;25.93;;;9.30;;
71914;SDS011;60387;49.994;14.660;2022-11-24T08:45:22;26.97;;;7.67;;
71914;SDS011;60387;49.994;14.660;2022-11-24T08:47:56;24.90;;;8.57;;
71914;SDS011;60387;49.994;14.660;2022-11-24T08:50:29;23.40;;;6.77;;
71914;SDS011;60387;49.994;14.660;2022-11-24T08:53:02;22.63;;;6.43;;
71914;SDS011;60387;49.994;14.660;2022-11-24T08:55:36;16.27;;;5.30;;
71914;SDS011;60387;49.994;14.660;2022-11-24T08:58:09;21.93;;;6.07;;
71914;SDS011;60387;49.994;14.660;2022-11-24T09:00:42;18.90;;;5.53;;
71914;SDS011;60387;49.994;14.660;2022-11-24T09:03:16;18.98;;;6.28;;
71914;SDS011;60387;49.994;14.660;2022-11-24T09:05:49;20.17;;;6.30;;
71914;SDS011;60387;49.994;14.660;2022-11-24T09:08:22;17.70;;;5.47;;
71914;SDS011;60387;49.994;14.660;2022-11-24T09:10:59;20.70;;;6.50;;
71914;SDS011;60387;49.994;14.660;2022-11-24T09:13:33;25.13;;;8.60;;
71914;SDS011;60387;49.994;14.660;2022-11-24T09:16:12;25.97;;;7.87;;
71914;SDS011;60387;49.994;14.660;2022-11-24T09:18:52;28.20;;;9.57;;
71914;SDS011;60387;49.994;14.660;2022-11-24T09:21:28;19.67;;;6.85;;
71914;SDS011;60387;49.994;14.660;2022-11-24T09:24:02;21.48;;;5.55;;
71914;SDS011;60387;49.994;14.660;2022-11-24T09:26:36;20.37;;;6.33;;
71914;SDS011;60387;49.994;14.660;2022-11-24T09:29:10;20.00;;;5.38;;
71914;SDS011;60387;49.994;14.660;2022-11-24T09:31:44;16.00;;;5.07;;
71914;SDS011;60387;49.994;14.660;2022-11-24T09:34:17;16.57;;;5.80;;
71914;SDS011;60387;49.994;14.660;2022-11-24T09:36:50;18.30;;;5.23;;
71914;SDS011;60387;49.994;14.660;2022-11-24T09:39:24;20.53;;;6.13;;
71914;SDS011;60387;49.994;14.660;2022-11-24T09:42:07;28.70;;;7.10;;
71914;SDS011;60387;49.994;14.660;2022-11-24T09:45:11;18.30;;;5.95;;
71914;SDS011;60387;49.994;14.660;2022-11-24T09:48:00;26.00;;;7.22;;
71914;SDS011;60387;49.994;14.660;2022-11-24T09:50:36;19.38;;;6.13;;
71914;SDS011;60387;49.994;14.660;2022-11-24T09:55:59;19.53;;;6.10;;
71914;SDS011;60387;49.994;14.660;2022-11-24T09:58:50;19.40;;;6.20;;
71914;SDS011;60387;49.994;14.660;2022-11-24T10:01:30;18.23;;;6.78;;
71914;SDS011;60387;49.994;14.660;2022-11-24T10:04:21;17.38;;;5.68;;
71914;SDS011;60387;49.994;14.660;2022-11-24T10:18:32;20.17;;;7.47;;
71914;SDS011;60387;49.994;14.660;2022-11-24T10:26:35;22.10;;;7.03;;
71914;SDS011;60387;49.994;14.660;2022-11-24T10:31:48;16.85;;;7.10;;
71914;SDS011;60387;49.994;14.660;2022-11-24T10:42:35;19.85;;;6.28;;
71914;SDS011;60387;49.994;14.660;2022-11-24T10:45:10;23.20;;;7.23;;
71914;SDS011;60387;49.994;14.660;2022-11-24T10:47:45;22.23;;;8.00;;
71914;SDS011;60387;49.994;14.660;2022-11-24T10:50:23;20.40;;;6.30;;
71914;SDS011;60387;49.994;14.660;2022-11-24T10:53:00;19.80;;;7.83;;
71914;SDS011;60387;49.994;14.660;2022-11-24T10:56:00;22.13;;;7.03;;
71914;SDS011;60387;49.994;14.660;2022-11-24T10:58:36;17.98;;;6.30;;
71914;SDS011;60387;49.994;14.660;2022-11-24T11:03:50;21.45;;;6.05;;
71914;SDS011;60387;49.994;14.660;2022-11-24T11:06:29;17.23;;;6.73;;
71914;SDS011;60387;49.994;14.660;2022-11-24T11:11:40;20.02;;;7.30;;
71914;SDS011;60387;49.994;14.660;2022-11-24T11:14:29;16.37;;;6.33;;
71914;SDS011;60387;49.994;14.660;2022-11-24T11:20:18;19.50;;;6.00;;
71914;SDS011;60387;49.994;14.660;2022-11-24T11:23:12;19.52;;;6.07;;
71914;SDS011;60387;49.994;14.660;2022-11-24T11:25:48;18.60;;;6.83;;
71914;SDS011;60387;49.994;14.660;2022-11-24T11:31:02;17.33;;;6.07;;
71914;SDS011;60387;49.994;14.660;2022-11-24T11:33:37;19.40;;;5.68;;
71914;SDS011;60387;49.994;14.660;2022-11-24T11:36:10;15.87;;;5.80;;
71914;SDS011;60387;49.994;14.660;2022-11-24T11:38:45;14.55;;;5.32;;
71914;SDS011;60387;49.994;14.660;2022-11-24T11:41:20;15.13;;;5.15;;
71914;SDS011;60387;49.994;14.660;2022-11-24T11:47:07;16.03;;;5.00;;
71914;SDS011;60387;49.994;14.660;2022-11-24T11:49:47;15.77;;;4.70;;
71914;SDS011;60387;49.994;14.660;2022-11-24T11:55:37;19.05;;;4.55;;
71914;SDS011;60387;49.994;14.660;2022-11-24T11:58:31;15.60;;;4.87;;
71914;SDS011;60387;49.994;14.660;2022-11-24T12:01:30;17.52;;;5.18;;
71914;SDS011;60387;49.994;14.660;2022-11-24T12:19:00;13.85;;;5.32;;
71914;SDS011;60387;49.994;14.660;2022-11-24T12:25:10;16.92;;;5.75;;
71914;SDS011;60387;49.994;14.660;2022-11-24T12:27:32;16.37;;;4.93;;
71914;SDS011;60387;49.994;14.660;2022-11-24T12:34:02;18.60;;;6.20;;
71914;SDS011;60387;49.994;14.660;2022-11-24T12:45:16;17.88;;;6.78;;
71914;SDS011;60387;49.994;14.660;2022-11-24T12:48:18;15.63;;;6.03;;
71914;SDS011;60387;49.994;14.660;2022-11-24T12:51:16;15.73;;;6.25;;
71914;SDS011;60387;49.994;14.660;2022-11-24T12:53:51;16.58;;;6.47;;
71914;SDS011;60387;49.994;14.660;2022-11-24T12:56:34;23.80;;;6.43;;
71914;SDS011;60387;49.994;14.660;2022-11-24T13:08:12;18.00;;;7.05;;
71914;SDS011;60387;49.994;14.660;2022-11-24T13:10:46;15.07;;;4.87;;
71914;SDS011;60387;49.994;14.660;2022-11-24T13:13:21;16.20;;;5.20;;
71914;SDS011;60387;49.994;14.660;2022-11-24T13:21:31;15.98;;;5.82;;
71914;SDS011;60387;49.994;14.660;2022-11-24T13:27:17;18.38;;;6.40;;
71914;SDS011;60387;49.994;14.660;2022-11-24T13:29:47;16.50;;;6.00;;
71914;SDS011;60387;49.994;14.660;2022-11-24T13:35:01;21.13;;;7.80;;
71914;SDS011;60387;49.994;14.660;2022-11-24T13:46:00;31.55;;;12.45;;
71914;SDS011;60387;49.994;14.660;2022-11-24T13:53:45;21.47;;;8.47;;
71914;SDS011;60387;49.994;14.660;2022-11-24T13:56:21;36.38;;;12.88;;
71914;SDS011;60387;49.994;14.660;2022-11-24T13:58:58;22.42;;;10.18;;
71914;SDS011;60387;49.994;14.660;2022-11-24T14:01:35;23.10;;;9.00;;
71914;SDS011;60387;49.994;14.660;2022-11-24T14:04:21;21.02;;;8.13;;
71914;SDS011;60387;49.994;14.660;2022-11-24T14:07:06;17.43;;;7.53;;
71914;SDS011;60387;49.994;14.660;2022-11-24T14:09:46;44.78;;;16.40;;
71914;SDS011;60387;49.994;14.660;2022-11-24T14:12:22;21.70;;;8.18;;
71914;SDS011;60387;49.994;14.660;2022-11-24T14:15:13;19.70;;;7.90;;
71914;SDS011;60387;49.994;14.660;2022-11-24T14:17:55;21.17;;;7.25;;
71914;SDS011;60387;49.994;14.660;2022-11-24T14:20:29;19.30;;;8.00;;
71914;SDS011;60387;49.994;14.660;2022-11-24T14:23:02;20.53;;;8.10;;
71914;SDS011;60387;49.994;14.660;2022-11-24T14:25:35;18.87;;;7.63;;
71914;SDS011;60387;49.994;14.660;2022-11-24T14:28:12;19.63;;;7.80;;
71914;SDS011;60387;49.994;14.660;2022-11-24T14:31:07;18.88;;;7.85;;
71914;SDS011;60387;49.994;14.660;2022-11-24T14:33:50;23.83;;;8.75;;
71914;SDS011;60387;49.994;14.660;2022-11-24T14:36:39;24.30;;;10.83;;
71914;SDS011;60387;49.994;14.660;2022-11-24T14:39:13;29.17;;;10.50;;
71914;SDS011;60387;49.994;14.660;2022-11-24T14:41:53;34.13;;;15.50;;
71914;SDS011;60387;49.994;14.660;2022-11-24T14:44:46;34.50;;;13.35;;
71914;SDS011;60387;49.994;14.660;2022-11-24T14:47:33;26.00;;;10.68;;
71914;SDS011;60387;49.994;14.660;2022-11-24T14:50:13;23.13;;;9.57;;
71914;SDS011;60387;49.994;14.660;2022-11-24T14:52:55;23.25;;;9.77;;
71914;SDS011;60387;49.994;14.660;2022-11-24T14:55:30;28.15;;;11.02;;
71914;SDS011;60387;49.994;14.660;2022-11-24T14:58:18;21.45;;;10.27;;
71914;SDS011;60387;49.994;14.660;2022-11-24T15:01:09;24.65;;;10.10;;
71914;SDS011;60387;49.994;14.660;2022-11-24T15:06:58;39.88;;;13.63;;
71914;SDS011;60387;49.994;14.660;2022-11-24T15:09:46;35.38;;;12.75;;
71914;SDS011;60387;49.994;14.660;2022-11-24T15:12:27;49.03;;;15.82;;
71914;SDS011;60387;49.994;14.660;2022-11-24T15:17:46;31.83;;;12.00;;
71914;SDS011;60387;49.994;14.660;2022-11-24T15:20:26;30.65;;;12.23;;
71914;SDS011;60387;49.994;14.660;2022-11-24T15:28:34;24.73;;;11.63;;
71914;SDS011;60387;49.994;14.660;2022-11-24T15:31:10;27.97;;;11.37;;
71914;SDS011;60387;49.994;14.660;2022-11-24T15:33:45;30.27;;;11.57;;
71914;SDS011;60387;49.994;14.660;2022-11-24T15:36:18;26.93;;;10.40;;
71914;SDS011;60387;49.994;14.660;2022-11-24T15:38:51;23.87;;;9.97;;
71914;SDS011;60387;49.994;14.660;2022-11-24T15:41:31;27.30;;;10.57;;
71914;SDS011;60387;49.994;14.660;2022-11-24T15:44:06;24.70;;;9.75;;
71914;SDS011;60387;49.994;14.660;2022-11-24T15:46:39;23.67;;;8.73;;
71914;SDS011;60387;49.994;14.660;2022-11-24T15:49:13;22.50;;;8.40;;
71914;SDS011;60387;49.994;14.660;2022-11-24T15:51:46;21.93;;;8.60;;
71914;SDS011;60387;49.994;14.660;2022-11-24T15:54:20;25.80;;;10.20;;
71914;SDS011;60387;49.994;14.660;2022-11-24T15:56:53;34.77;;;13.97;;
71914;SDS011;60387;49.994;14.660;2022-11-24T15:59:27;30.20;;;13.03;;
71914;SDS011;60387;49.994;14.660;2022-11-24T16:02:00;32.13;;;13.30;;
71914;SDS011;60387;49.994;14.660;2022-11-24T16:04:33;30.07;;;12.40;;
71914;SDS011;60387;49.994;14.660;2022-11-24T16:07:13;30.43;;;10.87;;
71914;SDS011;60387;49.994;14.660;2022-11-24T16:09:46;24.80;;;9.05;;
71914;SDS011;60387;49.994;14.660;2022-11-24T16:12:19;23.07;;;9.57;;
71914;SDS011;60387;49.994;14.660;2022-11-24T16:14:52;27.13;;;9.57;;
71914;SDS011;60387;49.994;14.660;2022-11-24T16:17:26;23.13;;;9.10;;
71914;SDS011;60387;49.994;14.660;2022-11-24T16:19:59;22.40;;;8.73;;
71914;SDS011;60387;49.994;14.660;2022-11-24T16:22:32;27.43;;;11.17;;
71914;SDS011;60387;49.994;14.660;2022-11-24T16:25:05;26.30;;;10.57;;
71914;SDS011;60387;49.994;14.660;2022-11-24T16:27:39;36.72;;;15.57;;
71914;SDS011;60387;49.994;14.660;2022-11-24T16:30:13;33.72;;;12.60;;
71914;SDS011;60387;49.994;14.660;2022-11-24T16:32:47;29.97;;;11.33;;
71914;SDS011;60387;49.994;14.660;2022-11-24T16:35:20;81.00;;;30.35;;
71914;SDS011;60387;49.994;14.660;2022-11-24T16:37:53;35.37;;;13.30;;
71914;SDS011;60387;49.994;14.660;2022-11-24T16:40:26;26.23;;;10.87;;
71914;SDS011;60387;49.994;14.660;2022-11-24T16:43:00;25.30;;;11.37;;
71914;SDS011;60387;49.994;14.660;2022-11-24T16:45:33;31.27;;;11.60;;
71914;SDS011;60387;49.994;14.660;2022-11-24T16:48:06;22.80;;;9.30;;
71914;SDS011;60387;49.994;14.660;2022-11-24T16:50:40;28.43;;;10.67;;
71914;SDS011;60387;49.994;14.660;2022-11-24T16:53:13;33.47;;;13.30;;
71914;SDS011;60387;49.994;14.660;2022-11-24T16:55:55;29.17;;;11.40;;
71914;SDS011;60387;49.994;14.660;2022-11-24T16:58:29;28.42;;;11.48;;
71914;SDS011;60387;49.994;14.660;2022-11-24T17:01:06;27.20;;;10.97;;
71914;SDS011;60387;49.994;14.660;2022-11-24T17:03:41;32.08;;;12.02;;
71914;SDS011;60387;49.994;14.660;2022-11-24T17:06:14;29.63;;;12.40;;
71914;SDS011;60387;49.994;14.660;2022-11-24T17:08:48;32.73;;;12.90;;
71914;SDS011;60387;49.994;14.660;2022-11-24T17:11:23;40.17;;;13.80;;
71914;SDS011;60387;49.994;14.660;2022-11-24T17:13:58;43.15;;;16.25;;
71914;SDS011;60387;49.994;14.660;2022-11-24T17:16:31;46.00;;;16.63;;